createdAt,value
2019-06-15T00:02:20.878Z,6.27
2019-06-15T00:04:46.886Z,4.80
2019-06-15T00:07:12.906Z,6.37
2019-06-15T00:09:38.869Z,8.97
2019-06-15T00:12:04.878Z,6.70
2019-06-15T00:14:30.879Z,6.63
2019-06-15T00:16:56.893Z,7.97
2019-06-15T00:19:23.607Z,8.13
2019-06-15T00:21:49.635Z,6.53
2019-06-15T00:24:16.374Z,8.97
2019-06-15T00:26:42.417Z,8.77
2019-06-15T00:29:08.414Z,8.40
2019-06-15T00:31:34.412Z,10.57
2019-06-15T00:34:00.423Z,9.40
2019-06-15T00:36:26.454Z,10.53
2019-06-15T00:38:52.440Z,9.87
2019-06-15T00:41:19.201Z,10.07
2019-06-15T00:43:45.160Z,8.50
2019-06-15T00:46:11.214Z,12.30
2019-06-15T00:48:37.219Z,8.60
2019-06-15T00:51:03.219Z,10.50
2019-06-15T00:53:30.006Z,10.93
2019-06-15T00:55:55.995Z,10.73
2019-06-15T00:58:22.049Z,13.57
2019-06-15T01:00:48.049Z,9.13
2019-06-15T01:03:14.051Z,10.33
2019-06-15T01:05:40.040Z,10.97
2019-06-15T01:08:06.053Z,12.07
2019-06-15T01:10:32.762Z,9.90
2019-06-15T01:12:58.757Z,9.43
2019-06-15T01:15:24.728Z,12.17
2019-06-15T01:17:51.507Z,11.60
2019-06-15T01:20:17.482Z,11.93
2019-06-15T01:22:44.252Z,10.07
2019-06-15T01:25:10.227Z,11.77
2019-06-15T01:27:36.250Z,13.37
2019-06-15T01:30:02.266Z,10.37
2019-06-15T01:32:28.296Z,11.27
2019-06-15T01:34:54.274Z,11.87
2019-06-15T01:37:20.297Z,11.80
2019-06-15T01:39:46.262Z,11.80
2019-06-15T01:42:12.258Z,12.40
2019-06-15T01:44:38.231Z,13.33
2019-06-15T01:47:04.287Z,12.77
2019-06-15T01:49:30.295Z,13.57
2019-06-15T01:51:56.301Z,14.60
2019-06-15T01:54:22.290Z,14.27
2019-06-15T01:56:48.254Z,12.63
2019-06-15T01:59:14.258Z,13.53
2019-06-15T02:01:40.240Z,15.77
2019-06-15T02:04:06.262Z,14.70
2019-06-15T02:06:32.256Z,12.77
2019-06-15T02:08:59.003Z,13.47
2019-06-15T02:11:25.722Z,13.23
2019-06-15T02:13:51.731Z,15.23
2019-06-15T02:16:17.701Z,18.70
2019-06-15T02:18:43.707Z,14.93
2019-06-15T02:21:10.428Z,17.43
2019-06-15T02:23:36.449Z,14.80
2019-06-15T02:26:02.438Z,13.90
2019-06-15T02:28:28.427Z,18.93
2019-06-15T02:30:55.146Z,16.57
2019-06-15T02:33:21.177Z,16.70
2019-06-15T02:35:47.148Z,17.87
2019-06-15T02:38:13.164Z,17.60
2019-06-15T02:40:39.140Z,17.00
2019-06-15T02:43:05.155Z,17.70
2019-06-15T02:45:31.153Z,19.53
2019-06-15T02:47:57.147Z,15.87
2019-06-15T02:50:23.146Z,17.30
2019-06-15T02:52:49.106Z,17.57
2019-06-15T02:55:15.108Z,19.40
2019-06-15T02:57:41.808Z,19.90
2019-06-15T03:00:07.834Z,17.80
2019-06-15T03:02:33.818Z,19.43
2019-06-15T03:04:59.836Z,20.47
2019-06-15T03:07:25.797Z,19.37
2019-06-15T03:09:51.860Z,17.90
2019-06-15T03:12:17.859Z,21.50
2019-06-15T03:14:43.843Z,19.13
2019-06-15T03:17:09.838Z,21.10
2019-06-15T03:19:36.551Z,20.60
2019-06-15T03:22:02.509Z,22.97
2019-06-15T03:24:28.504Z,19.47
2019-06-15T03:26:54.469Z,21.83
2019-06-15T03:29:20.553Z,22.50
2019-06-15T03:31:46.522Z,21.23
2019-06-15T03:34:12.538Z,23.27
2019-06-15T03:36:38.496Z,23.97
2019-06-15T03:39:04.510Z,23.33
2019-06-15T03:41:30.528Z,24.27
2019-06-15T03:43:56.525Z,23.20
2019-06-15T03:46:22.548Z,23.13
2019-06-15T03:48:48.523Z,21.23
2019-06-15T03:51:14.524Z,24.57
2019-06-15T03:53:40.514Z,22.33
2019-06-15T03:56:20.596Z,23.23
2019-06-15T03:58:32.544Z,23.83
2019-06-15T04:00:59.306Z,26.33
2019-06-15T04:03:25.285Z,24.13
2019-06-15T04:05:51.288Z,23.03
2019-06-15T04:08:17.256Z,22.80
2019-06-15T04:10:43.973Z,22.37
2019-06-15T04:13:09.930Z,24.27
2019-06-15T04:15:35.916Z,21.50
2019-06-15T04:18:01.890Z,22.67
2019-06-15T04:20:27.897Z,23.23
2019-06-15T04:22:54.599Z,23.57
2019-06-15T04:25:20.596Z,23.67
2019-06-15T04:27:46.590Z,21.77
2019-06-15T04:30:12.578Z,23.30
2019-06-15T04:32:38.542Z,22.40
2019-06-15T04:35:04.558Z,26.47
2019-06-15T04:37:30.576Z,20.50
2019-06-15T04:39:57.305Z,22.80
2019-06-15T04:42:24.035Z,24.23
2019-06-15T04:44:50.055Z,20.33
2019-06-15T04:47:16.037Z,22.97
2019-06-15T04:49:42.020Z,19.77
2019-06-15T04:52:08.748Z,21.30
2019-06-15T04:54:35.484Z,23.40
2019-06-15T04:57:02.251Z,19.40
2019-06-15T04:59:28.270Z,19.40
2019-06-15T05:01:54.294Z,19.70
2019-06-15T05:04:20.290Z,20.47
2019-06-15T05:06:46.293Z,24.53
2019-06-15T05:09:12.272Z,19.43
2019-06-15T05:11:38.297Z,20.90
2019-06-15T05:14:04.271Z,20.17
2019-06-15T05:16:30.280Z,20.33
2019-06-15T05:18:56.246Z,21.70
2019-06-15T05:21:22.290Z,20.63
2019-06-15T05:23:48.262Z,20.90
2019-06-15T05:26:14.260Z,20.83
2019-06-15T05:28:40.215Z,20.67
2019-06-15T05:31:06.196Z,19.23
2019-06-15T05:33:32.175Z,19.50
2019-06-15T05:35:58.210Z,17.97
2019-06-15T05:38:24.927Z,17.83
2019-06-15T05:40:50.915Z,19.43
2019-06-15T05:43:16.942Z,20.80
2019-06-15T05:45:42.931Z,16.33
2019-06-15T05:48:08.930Z,17.33
2019-06-15T05:50:34.938Z,16.90
2019-06-15T05:53:01.727Z,16.63
2019-06-15T05:55:27.704Z,18.00
2019-06-15T05:57:53.696Z,16.70
2019-06-15T06:00:19.675Z,16.63
2019-06-15T06:02:45.727Z,19.73
2019-06-15T06:05:11.774Z,16.97
2019-06-15T06:07:37.794Z,16.50
2019-06-15T06:10:03.772Z,15.33
2019-06-15T06:12:30.514Z,16.67
2019-06-15T06:14:56.481Z,16.20
2019-06-15T06:17:22.477Z,16.10
2019-06-15T06:19:48.484Z,17.47
2019-06-15T06:22:15.233Z,15.37
2019-06-15T06:24:41.963Z,17.03
2019-06-15T06:27:08.717Z,13.53
2019-06-15T06:29:35.441Z,15.13
2019-06-15T06:32:02.215Z,11.90
2019-06-15T06:34:28.208Z,11.63
2019-06-15T06:36:54.943Z,10.17
2019-06-15T06:39:21.024Z,12.53
2019-06-15T06:41:47.795Z,13.57
2019-06-15T06:44:13.810Z,10.00
2019-06-15T06:46:39.781Z,12.33
2019-06-15T06:49:05.791Z,10.00
2019-06-15T06:51:32.515Z,10.50
2019-06-15T06:53:58.524Z,11.13
2019-06-15T06:56:24.528Z,11.10
2019-06-15T06:58:50.507Z,13.37
2019-06-15T07:01:17.219Z,12.67
2019-06-15T07:03:43.269Z,12.20
2019-06-15T07:06:09.244Z,12.53
2019-06-15T07:08:35.232Z,13.43
2019-06-15T07:11:01.224Z,11.60
2019-06-15T07:13:27.994Z,12.03
2019-06-15T07:15:54.723Z,10.20
2019-06-15T07:18:21.474Z,12.20
2019-06-15T07:20:47.466Z,15.93
2019-06-15T07:23:14.227Z,11.80
2019-06-15T07:25:40.248Z,12.83
2019-06-15T07:28:08.374Z,9.00
2019-06-15T07:30:33.039Z,10.93
2019-06-15T07:32:59.060Z,12.40
2019-06-15T07:35:25.065Z,9.80
2019-06-15T07:37:51.068Z,14.13
2019-06-15T07:40:17.075Z,7.63
2019-06-15T07:42:43.077Z,7.20
2019-06-15T07:45:09.081Z,8.00
2019-06-15T07:47:35.078Z,7.87
2019-06-15T07:50:01.833Z,6.67
2019-06-15T07:52:28.548Z,6.13
2019-06-15T07:54:55.299Z,8.10
2019-06-15T07:57:22.020Z,8.37
2019-06-15T07:59:48.033Z,9.13
2019-06-15T08:02:14.008Z,9.07
2019-06-15T08:04:40.029Z,11.07
2019-06-15T08:07:06.056Z,11.93
2019-06-15T08:09:32.078Z,10.93
2019-06-15T08:11:58.100Z,10.47
2019-06-15T08:14:24.826Z,13.63
2019-06-15T08:16:50.960Z,10.47
2019-06-15T08:19:17.713Z,11.93
2019-06-15T08:21:43.681Z,11.77
2019-06-15T08:24:09.686Z,10.50
2019-06-15T08:26:35.671Z,10.77
2019-06-15T08:29:01.726Z,12.47
2019-06-15T08:31:27.694Z,15.33
2019-06-15T08:33:53.761Z,12.17
2019-06-15T08:36:19.743Z,13.03
2019-06-15T08:38:45.731Z,11.03
2019-06-15T08:41:11.768Z,9.40
2019-06-15T08:43:37.783Z,7.50
2019-06-15T08:46:03.820Z,8.17
2019-06-15T08:48:29.925Z,7.00
2019-06-15T08:50:55.935Z,7.47
2019-06-15T08:53:21.903Z,8.70
2019-06-15T08:55:47.918Z,12.90
2019-06-15T08:58:13.906Z,12.73
2019-06-15T09:00:39.911Z,11.43
2019-06-15T09:03:06.630Z,13.70
2019-06-15T09:05:32.657Z,13.90
2019-06-15T09:07:59.402Z,16.20
2019-06-15T09:10:26.173Z,12.53
2019-06-15T09:12:52.158Z,11.67
2019-06-15T09:15:18.911Z,13.73
2019-06-15T09:17:45.617Z,14.10
2019-06-15T09:20:11.632Z,12.30
2019-06-15T09:22:37.697Z,13.30
2019-06-15T09:25:04.442Z,16.30
2019-06-15T09:27:30.440Z,14.97
2019-06-15T09:29:56.438Z,16.83
2019-06-15T09:32:22.450Z,13.73
2019-06-15T09:34:48.461Z,16.13
2019-06-15T09:37:14.462Z,16.13
2019-06-15T09:39:41.178Z,16.03
2019-06-15T09:42:07.182Z,15.13
2019-06-15T09:44:33.189Z,18.57
2019-06-15T09:46:59.236Z,14.33
2019-06-15T09:49:25.283Z,17.80
2019-06-15T09:51:51.344Z,14.30
2019-06-15T09:54:17.337Z,15.53
2019-06-15T09:56:43.409Z,16.90
2019-06-15T09:59:09.390Z,16.60
2019-06-15T10:01:36.215Z,15.03
2019-06-15T10:04:09.033Z,12.93
2019-06-15T10:06:35.091Z,15.43
2019-06-15T10:09:01.075Z,14.57
2019-06-15T10:11:27.107Z,12.87
2019-06-15T10:13:53.103Z,13.40
2019-06-15T10:16:19.850Z,13.83
2019-06-15T10:18:46.587Z,15.23
2019-06-15T10:21:13.363Z,15.13
2019-06-15T10:23:39.351Z,13.73
2019-06-15T10:26:06.116Z,14.20
2019-06-15T10:28:32.108Z,12.07
2019-06-15T10:31:00.771Z,12.73
2019-06-15T10:33:24.155Z,13.97
2019-06-15T10:35:50.889Z,13.47
2019-06-15T10:38:16.898Z,14.40
2019-06-15T10:40:42.882Z,12.30
2019-06-15T10:43:08.964Z,10.90
2019-06-15T10:45:35.037Z,12.07
2019-06-15T10:48:01.117Z,10.13
2019-06-15T10:50:27.218Z,10.30
2019-06-15T10:52:53.429Z,9.70
2019-06-15T10:55:19.486Z,8.37
2019-06-15T10:57:45.481Z,10.67
2019-06-15T11:00:11.552Z,9.40
2019-06-15T11:02:37.715Z,8.13
2019-06-15T11:05:03.689Z,9.70
2019-06-15T11:07:29.685Z,7.40
2019-06-15T11:09:55.708Z,7.60
2019-06-15T11:12:21.734Z,6.87
2019-06-15T11:14:47.720Z,6.37
2019-06-15T11:17:13.720Z,7.53
2019-06-15T11:19:40.439Z,5.37
2019-06-15T11:22:06.432Z,6.13
2019-06-15T11:24:32.429Z,4.97
2019-06-15T11:26:58.397Z,5.00
2019-06-15T11:29:24.397Z,5.80
2019-06-15T11:31:50.468Z,5.50
2019-06-15T11:34:16.528Z,6.17
2019-06-15T11:36:42.513Z,5.60
2019-06-15T11:39:08.537Z,5.17
2019-06-15T11:41:34.495Z,5.73
2019-06-15T11:44:00.512Z,4.70
2019-06-15T11:46:27.222Z,5.87
2019-06-15T11:48:53.238Z,4.50
2019-06-15T11:51:19.230Z,4.90
2019-06-15T11:53:45.235Z,5.40
2019-06-15T11:56:11.230Z,4.13
2019-06-15T11:58:37.986Z,7.97
2019-06-15T12:01:04.694Z,3.97
2019-06-15T12:03:30.688Z,7.50
2019-06-15T12:05:56.673Z,4.23
2019-06-15T12:08:23.413Z,4.97
2019-06-15T12:10:50.133Z,4.80
2019-06-15T12:13:16.141Z,4.70
2019-06-15T12:15:42.143Z,3.67
2019-06-15T12:18:08.171Z,4.17
2019-06-15T12:20:34.184Z,4.37
2019-06-15T12:23:00.203Z,4.10
2019-06-15T12:25:26.216Z,3.77
2019-06-15T12:27:52.267Z,3.53
2019-06-15T12:30:18.313Z,3.87
2019-06-15T12:32:45.070Z,3.10
2019-06-15T12:35:11.093Z,3.63
2019-06-15T12:37:37.050Z,3.30
2019-06-15T12:40:03.051Z,5.77
2019-06-15T12:42:29.776Z,5.10
2019-06-15T12:44:56.543Z,7.07
2019-06-15T12:47:23.282Z,4.40
2019-06-15T12:49:50.014Z,5.70
2019-06-15T12:52:16.001Z,6.03
2019-06-15T12:54:42.788Z,6.03
2019-06-15T12:57:09.536Z,7.57
2019-06-15T12:59:35.543Z,8.83
2019-06-15T13:02:02.242Z,9.27
2019-06-15T13:04:28.275Z,9.50
2019-06-15T13:06:54.248Z,10.63
2019-06-15T13:09:20.258Z,10.80
2019-06-15T13:11:47.026Z,11.23
2019-06-15T13:14:13.047Z,9.13
2019-06-15T13:16:39.998Z,7.67
2019-06-15T13:19:05.083Z,6.40
2019-06-15T13:21:31.122Z,4.43
2019-06-15T13:23:57.137Z,3.43
2019-06-15T13:26:23.926Z,4.20
2019-06-15T13:28:51.225Z,3.43
2019-06-15T13:31:18.475Z,2.50
2019-06-15T13:33:42.287Z,2.83
2019-06-15T13:36:08.369Z,3.00
2019-06-15T13:38:34.481Z,2.03
2019-06-15T13:41:01.942Z,2.53
2019-06-15T13:43:28.723Z,1.40
2019-06-15T13:45:54.842Z,1.83
2019-06-15T13:48:20.889Z,1.40
2019-06-15T13:50:46.892Z,1.50
2019-06-15T13:53:12.884Z,1.70
2019-06-15T13:55:39.638Z,2.70
2019-06-15T13:58:05.805Z,1.57
2019-06-15T14:00:31.836Z,1.40
2019-06-15T14:02:57.839Z,1.73
2019-06-15T14:05:23.908Z,2.37
2019-06-15T14:07:49.886Z,2.70
2019-06-15T14:10:15.916Z,1.93
2019-06-15T14:12:41.888Z,2.53
2019-06-15T14:15:08.692Z,2.30
2019-06-15T14:17:34.670Z,2.13
2019-06-15T14:20:01.416Z,1.70
2019-06-15T14:22:27.391Z,1.30
2019-06-15T14:24:53.400Z,1.97
2019-06-15T14:27:19.406Z,1.73
2019-06-15T14:29:45.434Z,0.87
2019-06-15T14:32:11.720Z,1.90
2019-06-15T14:34:38.440Z,2.33
2019-06-15T14:37:04.463Z,1.70
2019-06-15T14:39:31.236Z,2.60
2019-06-15T14:41:57.249Z,0.70
2019-06-15T14:44:23.965Z,1.70
2019-06-15T14:46:50.027Z,1.77
2019-06-15T14:49:16.045Z,1.10
2019-06-15T14:51:42.146Z,1.00
2019-06-15T14:54:08.903Z,1.43
2019-06-15T14:56:35.674Z,0.83
2019-06-15T14:59:01.645Z,1.90
2019-06-15T15:01:27.700Z,3.13
2019-06-15T15:03:57.085Z,1.03
2019-06-15T15:06:20.517Z,2.03
2019-06-15T15:08:47.317Z,0.70
2019-06-15T15:11:13.475Z,1.00
2019-06-15T15:13:40.197Z,1.10
2019-06-15T15:16:06.965Z,2.67
2019-06-15T15:18:32.353Z,0.80
2019-06-15T15:20:58.323Z,0.80
2019-06-15T15:23:24.327Z,0.80
2019-06-15T15:25:50.354Z,0.93
2019-06-15T15:28:16.396Z,0.60
2019-06-15T15:30:43.161Z,2.53
2019-06-15T15:33:09.968Z,0.90
2019-06-15T15:35:37.220Z,0.80
2019-06-15T15:38:02.095Z,1.70
2019-06-15T15:40:28.116Z,0.97
2019-06-15T15:42:56.199Z,1.77
2019-06-15T15:45:20.973Z,0.87
2019-06-15T15:47:47.002Z,1.27
2019-06-15T15:50:12.993Z,0.70
2019-06-15T15:52:39.067Z,0.50
2019-06-15T15:55:06.673Z,0.70
2019-06-15T15:57:31.185Z,0.47
2019-06-15T15:59:57.160Z,2.10
2019-06-15T16:02:26.850Z,2.13
2019-06-15T16:04:50.093Z,0.47
2019-06-15T16:07:16.837Z,0.57
2019-06-15T16:09:43.140Z,0.60
2019-06-15T16:12:09.835Z,0.50
2019-06-15T16:14:36.967Z,0.60
2019-06-15T16:17:01.978Z,0.53
2019-06-15T16:19:28.000Z,0.87
2019-06-15T16:21:56.014Z,0.60
2019-06-15T16:24:20.121Z,0.50
2019-06-15T16:26:46.688Z,2.80
2019-06-15T16:29:12.153Z,0.80
2019-06-15T16:31:38.860Z,1.10
2019-06-15T16:34:04.867Z,2.13
2019-06-15T16:36:30.876Z,0.90
2019-06-15T16:38:56.925Z,0.80
2019-06-15T16:41:22.915Z,0.67
2019-06-15T16:43:48.915Z,1.10
2019-06-15T16:46:17.141Z,0.50
2019-06-15T16:48:40.991Z,1.23
2019-06-15T16:51:06.967Z,2.77
2019-06-15T16:53:33.738Z,2.43
2019-06-15T16:55:59.754Z,2.50
2019-06-15T16:58:26.495Z,2.87
2019-06-15T17:00:51.850Z,0.70
2019-06-15T17:03:24.846Z,2.13
2019-06-15T17:05:46.564Z,0.80
2019-06-15T17:08:10.624Z,1.23
2019-06-15T17:10:36.609Z,1.17
2019-06-15T17:13:02.608Z,1.60
2019-06-15T17:15:28.696Z,1.73
2019-06-15T17:17:56.353Z,0.70
2019-06-15T17:20:21.539Z,1.50
2019-06-15T17:22:47.589Z,2.20
2019-06-15T17:25:13.608Z,2.87
2019-06-15T17:27:39.651Z,1.10
2019-06-15T17:30:07.252Z,1.53
2019-06-15T17:32:33.196Z,2.30
2019-06-15T17:35:00.143Z,1.57
2019-06-15T17:37:26.690Z,1.23
2019-06-15T17:39:52.882Z,2.90
2019-06-15T17:42:18.909Z,1.43
2019-06-15T17:44:46.340Z,2.10
2019-06-15T17:47:13.386Z,5.57
2019-06-15T17:49:39.479Z,2.90
2019-06-15T17:52:06.559Z,1.37
2019-06-15T17:54:31.625Z,0.80
2019-06-15T17:56:57.621Z,1.40
2019-06-15T17:59:23.723Z,1.13
2019-06-15T18:01:50.476Z,3.93
2019-06-15T18:04:17.639Z,1.00
2019-06-15T18:06:46.913Z,1.93
2019-06-15T18:09:10.821Z,1.27
2019-06-15T18:11:37.598Z,1.20
2019-06-15T18:14:02.946Z,1.63
2019-06-15T18:16:30.574Z,2.30
2019-06-15T18:18:55.797Z,1.43
2019-06-15T18:21:22.945Z,1.20
2019-06-15T18:23:49.469Z,1.60
2019-06-15T18:26:16.433Z,2.27
2019-06-15T18:28:42.626Z,3.00
2019-06-15T18:31:08.712Z,2.57
2019-06-15T18:33:36.632Z,2.37
2019-06-15T18:36:01.165Z,2.23
2019-06-15T18:38:27.213Z,1.97
2019-06-15T18:40:53.256Z,2.53
2019-06-15T18:43:19.351Z,2.60
2019-06-15T18:45:47.264Z,0.97
2019-06-15T18:48:12.663Z,1.47
2019-06-15T18:50:44.721Z,2.70
2019-06-15T18:53:10.920Z,2.27
2019-06-15T18:55:37.002Z,2.33
2019-06-15T18:58:03.021Z,1.93
2019-06-15T19:00:29.050Z,2.40
2019-06-15T19:02:56.052Z,1.67
2019-06-15T19:05:21.907Z,2.07
2019-06-15T19:07:47.947Z,1.87
2019-06-15T19:10:16.444Z,1.90
2019-06-15T19:12:40.009Z,2.20
2019-06-15T19:15:07.335Z,2.13
2019-06-15T19:17:32.783Z,2.17
2019-06-15T19:19:58.808Z,1.90
2019-06-15T19:22:27.125Z,1.77
2019-06-15T19:24:51.602Z,3.60
2019-06-15T19:27:17.611Z,2.17
2019-06-15T19:29:43.631Z,2.70
2019-06-15T19:32:09.675Z,1.57
2019-06-15T19:34:44.312Z,1.73
2019-06-15T19:37:01.715Z,1.60
2019-06-15T19:39:27.685Z,2.60
2019-06-15T19:41:56.171Z,3.47
2019-06-15T19:44:19.749Z,3.00
2019-06-15T19:46:47.613Z,2.00
2019-06-15T19:49:12.575Z,2.83
2019-06-15T19:51:38.553Z,1.53
2019-06-15T19:54:06.859Z,3.83
2019-06-15T19:56:31.428Z,3.97
2019-06-15T19:58:58.181Z,5.53
2019-06-15T20:01:26.227Z,12.33
2019-06-15T20:03:51.057Z,9.27
2019-06-15T20:06:17.064Z,8.67
2019-06-15T20:08:43.061Z,7.17
2019-06-15T20:11:09.026Z,5.07
2019-06-15T20:13:37.110Z,6.23
2019-06-15T20:16:01.114Z,3.00
2019-06-15T20:18:30.007Z,2.43
2019-06-15T20:20:53.205Z,4.23
2019-06-15T20:23:19.979Z,4.13
2019-06-15T20:25:47.093Z,2.60
2019-06-15T20:28:12.188Z,3.10
2019-06-15T20:30:38.178Z,3.80
2019-06-15T20:33:04.203Z,4.67
2019-06-15T20:35:30.207Z,4.43
2019-06-15T20:37:56.237Z,2.43
2019-06-15T20:40:22.232Z,3.33
2019-06-15T20:42:48.240Z,2.23
2019-06-15T20:45:14.273Z,2.80
2019-06-15T20:47:40.278Z,5.20
2019-06-15T20:50:06.999Z,2.10
2019-06-15T20:52:33.016Z,6.67
2019-06-15T20:54:59.781Z,7.07
2019-06-15T20:57:26.550Z,4.03
2019-06-15T20:59:52.557Z,2.53
2019-06-15T21:02:18.619Z,3.70
2019-06-15T21:04:44.620Z,2.90
2019-06-15T21:07:10.669Z,3.80
2019-06-15T21:09:36.692Z,5.03
2019-06-15T21:12:02.745Z,3.27
2019-06-15T21:14:29.518Z,2.67
2019-06-15T21:16:56.837Z,5.13
2019-06-15T21:19:22.335Z,4.27
2019-06-15T21:21:48.337Z,4.50
2019-06-15T21:24:16.907Z,5.40
2019-06-15T21:26:40.446Z,5.70
2019-06-15T21:29:07.207Z,4.77
2019-06-15T21:31:33.208Z,4.73
2019-06-15T21:33:59.297Z,5.77
2019-06-15T21:36:26.043Z,5.03
2019-06-15T21:38:51.460Z,4.63
2019-06-15T21:41:17.501Z,6.13
2019-06-15T21:43:44.296Z,4.10
2019-06-15T21:46:10.346Z,3.57
2019-06-15T21:48:36.648Z,4.50
2019-06-15T21:51:02.478Z,4.10
2019-06-15T21:53:28.496Z,5.07
2019-06-15T21:55:56.266Z,6.20
2019-06-15T21:58:20.574Z,4.07
2019-06-15T22:00:47.685Z,4.57
2019-06-15T22:03:12.573Z,4.40
2019-06-15T22:05:38.834Z,4.87
2019-06-15T22:08:06.428Z,4.17
2019-06-15T22:10:31.037Z,5.47
2019-06-15T22:12:57.755Z,5.20
2019-06-15T22:15:23.762Z,6.37
2019-06-15T22:17:49.753Z,4.70
2019-06-15T22:20:16.919Z,5.07
2019-06-15T22:22:41.810Z,4.63
2019-06-15T22:25:07.809Z,5.43
2019-06-15T22:27:36.037Z,5.10
2019-06-15T22:29:59.857Z,5.67
2019-06-15T22:32:27.053Z,5.00
2019-06-15T22:34:51.899Z,5.53
2019-06-15T22:37:18.621Z,5.80
2019-06-15T22:39:46.683Z,5.37
2019-06-15T22:42:11.487Z,6.13
2019-06-15T22:44:38.216Z,4.73
2019-06-15T22:47:06.747Z,5.60
2019-06-15T22:49:31.022Z,7.07
2019-06-15T22:51:57.021Z,7.13
2019-06-15T22:54:25.981Z,8.67
2019-06-15T22:56:49.830Z,7.50
2019-06-15T22:59:17.032Z,6.43
2019-06-15T23:01:42.714Z,5.57
2019-06-15T23:04:08.701Z,11.70
2019-06-15T23:06:38.731Z,10.83
2019-06-15T23:09:00.764Z,7.13
2019-06-15T23:11:26.824Z,7.57
2019-06-15T23:13:52.780Z,8.87
2019-06-15T23:16:19.536Z,8.53
2019-06-15T23:18:46.769Z,8.07
2019-06-15T23:21:11.602Z,7.70
2019-06-15T23:23:37.599Z,10.13
2019-06-15T23:26:06.287Z,7.47
2019-06-15T23:28:29.669Z,6.90
2019-06-15T23:30:56.176Z,8.40
2019-06-15T23:33:21.697Z,6.77
2019-06-15T23:35:47.673Z,7.73
2019-06-15T23:38:15.869Z,8.40
2019-06-15T23:40:39.744Z,10.73
2019-06-15T23:43:06.254Z,9.13
2019-06-15T23:45:31.796Z,8.97
2019-06-15T23:47:58.564Z,7.40
2019-06-15T23:50:26.393Z,9.00
2019-06-15T23:52:51.293Z,8.37
2019-06-15T23:55:17.272Z,9.33
2019-06-15T23:57:43.260Z,8.17
